sensor_id;sensor_type;location;lat;lon;timestamp;pressure;altitude;pressure_sealevel;temperature;humidity
19777;BME280;10047;42.490;26.012;2023-01-29T00:00:30;100331.31;;;3.51;100.00
19777;BME280;10047;42.490;26.012;2023-01-29T00:02:56;100316.97;;;3.35;100.00
19777;BME280;10047;42.490;26.012;2023-01-29T00:05:21;100312.88;;;3.46;100.00
19777;BME280;10047;42.490;26.012;2023-01-29T00:07:47;100358.13;;;3.52;100.00
19777;BME280;10047;42.490;26.012;2023-01-29T00:10:12;100349.91;;;3.76;100.00
19777;BME280;10047;42.490;26.012;2023-01-29T00:12:38;100286.00;;;3.37;100.00
19777;BME280;10047;42.490;26.012;2023-01-29T00:15:04;100363.13;;;3.46;100.00
19777;BME280;10047;42.490;26.012;2023-01-29T00:17:29;100349.81;;;3.64;100.00
19777;BME280;10047;42.490;26.012;2023-01-29T00:19:55;100254.69;;;2.84;100.00
19777;BME280;10047;42.490;26.012;2023-01-29T00:22:20;100281.69;;;3.12;100.00
19777;BME280;10047;42.490;26.012;2023-01-29T00:24:46;100375.81;;;3.66;100.00
19777;BME280;10047;42.490;26.012;2023-01-29T00:27:11;100364.94;;;3.73;100.00
19777;BME280;10047;42.490;26.012;2023-01-29T00:29:37;100335.53;;;3.50;100.00
19777;BME280;10047;42.490;26.012;2023-01-29T00:32:02;100284.81;;;2.86;100.00
19777;BME280;10047;42.490;26.012;2023-01-29T00:34:28;100361.50;;;3.56;100.00
19777;BME280;10047;42.490;26.012;2023-01-29T00:36:53;100318.59;;;3.25;100.00
19777;BME280;10047;42.490;26.012;2023-01-29T00:39:30;100359.91;;;3.73;100.00
19777;BME280;10047;42.490;26.012;2023-01-29T00:42:03;100287.56;;;3.17;100.00
19777;BME280;10047;42.490;26.012;2023-01-29T00:44:47;100368.19;;;3.55;100.00
19777;BME280;10047;42.490;26.012;2023-01-29T00:47:22;100270.75;;;3.07;100.00
19777;BME280;10047;42.490;26.012;2023-01-29T00:50:05;100299.91;;;2.89;100.00
19777;BME280;10047;42.490;26.012;2023-01-29T00:52:31;100381.38;;;3.25;100.00
19777;BME280;10047;42.490;26.012;2023-01-29T00:54:58;100368.88;;;3.30;100.00
19777;BME280;10047;42.490;26.012;2023-01-29T00:57:26;100281.44;;;2.81;100.00
19777;BME280;10047;42.490;26.012;2023-01-29T00:59:51;100362.28;;;3.45;100.00
19777;BME280;10047;42.490;26.012;2023-01-29T01:02:18;100309.25;;;3.09;100.00
19777;BME280;10047;42.490;26.012;2023-01-29T01:05:03;100311.84;;;3.21;100.00
19777;BME280;10047;42.490;26.012;2023-01-29T01:07:32;100321.09;;;3.24;100.00
19777;BME280;10047;42.490;26.012;2023-01-29T01:09:58;100307.59;;;3.07;100.00
19777;BME280;10047;42.490;26.012;2023-01-29T01:12:42;100304.19;;;3.02;100.00
19777;BME280;10047;42.490;26.012;2023-01-29T01:15:08;100398.34;;;3.57;100.00
19777;BME280;10047;42.490;26.012;2023-01-29T01:17:34;100293.28;;;2.97;100.00
19777;BME280;10047;42.490;26.012;2023-01-29T01:20:00;100406.59;;;3.36;100.00
19777;BME280;10047;42.490;26.012;2023-01-29T01:22:26;100405.78;;;3.43;100.00
19777;BME280;10047;42.490;26.012;2023-01-29T01:24:51;100227.63;;;2.50;100.00
19777;BME280;10047;42.490;26.012;2023-01-29T01:27:17;100315.03;;;2.99;100.00
19777;BME280;10047;42.490;26.012;2023-01-29T01:29:46;100317.47;;;2.87;100.00
19777;BME280;10047;42.490;26.012;2023-01-29T01:32:12;100362.94;;;3.25;100.00
19777;BME280;10047;42.490;26.012;2023-01-29T01:34:37;100394.84;;;3.30;100.00
19777;BME280;10047;42.490;26.012;2023-01-29T01:37:03;100398.31;;;3.49;100.00
19777;BME280;10047;42.490;26.012;2023-01-29T01:39:28;100399.00;;;3.30;100.00
19777;BME280;10047;42.490;26.012;2023-01-29T01:41:54;100316.53;;;2.78;100.00
19777;BME280;10047;42.490;26.012;2023-01-29T01:47:46;100399.81;;;3.24;100.00
19777;BME280;10047;42.490;26.012;2023-01-29T01:50:23;100396.59;;;3.40;100.00
19777;BME280;10047;42.490;26.012;2023-01-29T01:52:56;100395.59;;;3.25;100.00
19777;BME280;10047;42.490;26.012;2023-01-29T01:55:25;100320.00;;;2.87;100.00
19777;BME280;10047;42.490;26.012;2023-01-29T01:57:56;100397.31;;;3.29;100.00
19777;BME280;10047;42.490;26.012;2023-01-29T02:00:25;100325.88;;;2.91;100.00
19777;BME280;10047;42.490;26.012;2023-01-29T02:02:51;100412.44;;;3.35;100.00
19777;BME280;10047;42.490;26.012;2023-01-29T02:05:36;100325.91;;;2.97;100.00
19777;BME280;10047;42.490;26.012;2023-01-29T02:08:46;100413.31;;;3.41;100.00
19777;BME280;10047;42.490;26.012;2023-01-29T02:11:32;100397.25;;;3.20;100.00
19777;BME280;10047;42.490;26.012;2023-01-29T02:13:58;100314.97;;;2.87;100.00
19777;BME280;10047;42.490;26.012;2023-01-29T02:16:24;100311.63;;;2.90;100.00
19777;BME280;10047;42.490;26.012;2023-01-29T02:18:49;100373.00;;;3.22;100.00
19777;BME280;10047;42.490;26.012;2023-01-29T02:21:39;100408.31;;;3.41;100.00
19777;BME280;10047;42.490;26.012;2023-01-29T02:24:44;100390.75;;;3.44;100.00
19777;BME280;10047;42.490;26.012;2023-01-29T02:27:23;100417.59;;;3.50;100.00
19777;BME280;10047;42.490;26.012;2023-01-29T02:35:45;100427.50;;;3.32;100.00
19777;BME280;10047;42.490;26.012;2023-01-29T02:38:34;100408.31;;;3.41;100.00
19777;BME280;10047;42.490;26.012;2023-01-29T02:41:06;100310.66;;;2.74;100.00
19777;BME280;10047;42.490;26.012;2023-01-29T02:43:46;100328.44;;;2.98;100.00
19777;BME280;10047;42.490;26.012;2023-01-29T02:46:32;100419.78;;;3.11;100.00
19777;BME280;10047;42.490;26.012;2023-01-29T02:49:26;100391.13;;;2.89;100.00
19777;BME280;10047;42.490;26.012;2023-01-29T02:52:05;100329.63;;;2.48;100.00
19777;BME280;10047;42.490;26.012;2023-01-29T02:54:54;100425.56;;;3.02;100.00
19777;BME280;10047;42.490;26.012;2023-01-29T02:57:28;100420.44;;;2.93;100.00
19777;BME280;10047;42.490;26.012;2023-01-29T02:59:55;100443.91;;;2.97;100.00
19777;BME280;10047;42.490;26.012;2023-01-29T03:05:29;100432.34;;;3.14;100.00
19777;BME280;10047;42.490;26.012;2023-01-29T03:07:59;100416.31;;;2.98;100.00
19777;BME280;10047;42.490;26.012;2023-01-29T03:15:38;100452.91;;;2.77;100.00
19777;BME280;10047;42.490;26.012;2023-01-29T03:18:13;100469.66;;;2.79;100.00
19777;BME280;10047;42.490;26.012;2023-01-29T03:20:43;100480.63;;;2.87;100.00
19777;BME280;10047;42.490;26.012;2023-01-29T03:23:20;100406.44;;;2.37;100.00
19777;BME280;10047;42.490;26.012;2023-01-29T03:25:53;100511.19;;;2.56;100.00
19777;BME280;10047;42.490;26.012;2023-01-29T03:28:42;100528.59;;;2.44;100.00
19777;BME280;10047;42.490;26.012;2023-01-29T03:31:28;100510.94;;;2.38;100.00
19777;BME280;10047;42.490;26.012;2023-01-29T03:34:16;100447.72;;;1.97;100.00
19777;BME280;10047;42.490;26.012;2023-01-29T03:39:14;100574.94;;;2.67;100.00
19777;BME280;10047;42.490;26.012;2023-01-29T03:42:37;100517.22;;;2.06;100.00
19777;BME280;10047;42.490;26.012;2023-01-29T03:49:47;100619.78;;;2.46;100.00
19777;BME280;10047;42.490;26.012;2023-01-29T03:55:27;100541.34;;;1.99;100.00
19777;BME280;10047;42.490;26.012;2023-01-29T03:58:02;100607.78;;;2.27;100.00
19777;BME280;10047;42.490;26.012;2023-01-29T04:00:37;100629.75;;;2.41;100.00
19777;BME280;10047;42.490;26.012;2023-01-29T04:05:48;100581.66;;;2.13;100.00
19777;BME280;10047;42.490;26.012;2023-01-29T04:08:25;100646.38;;;2.35;100.00
19777;BME280;10047;42.490;26.012;2023-01-29T04:10:54;100645.50;;;2.33;100.00
19777;BME280;10047;42.490;26.012;2023-01-29T04:13:22;100683.22;;;2.39;100.00
19777;BME280;10047;42.490;26.012;2023-01-29T04:15:54;100668.59;;;2.14;100.00
19777;BME280;10047;42.490;26.012;2023-01-29T04:18:21;100680.19;;;2.07;100.00
19777;BME280;10047;42.490;26.012;2023-01-29T04:20:47;100639.25;;;1.60;100.00
19777;BME280;10047;42.490;26.012;2023-01-29T04:23:23;100674.47;;;1.69;100.00
19777;BME280;10047;42.490;26.012;2023-01-29T04:29:11;100609.28;;;1.23;100.00
19777;BME280;10047;42.490;26.012;2023-01-29T04:31:45;100705.00;;;1.92;100.00
19777;BME280;10047;42.490;26.012;2023-01-29T04:39:50;100707.06;;;1.71;100.00
19777;BME280;10047;42.490;26.012;2023-01-29T04:42:30;100662.22;;;1.41;100.00
19777;BME280;10047;42.490;26.012;2023-01-29T04:45:06;100748.13;;;1.77;100.00
19777;BME280;10047;42.490;26.012;2023-01-29T04:48:01;100737.34;;;1.82;100.00
19777;BME280;10047;42.490;26.012;2023-01-29T04:50:48;100734.13;;;1.89;100.00
19777;BME280;10047;42.490;26.012;2023-01-29T04:53:54;100746.00;;;1.96;100.00
19777;BME280;10047;42.490;26.012;2023-01-29T04:56:32;100762.72;;;2.94;100.00
19777;BME280;10047;42.490;26.012;2023-01-29T04:59:04;100733.41;;;1.94;100.00
19777;BME280;10047;42.490;26.012;2023-01-29T05:01:32;100764.06;;;1.80;100.00
19777;BME280;10047;42.490;26.012;2023-01-29T05:04:03;100679.25;;;1.17;100.00
19777;BME280;10047;42.490;26.012;2023-01-29T05:06:31;100732.19;;;1.34;100.00
19777;BME280;10047;42.490;26.012;2023-01-29T05:08:58;100651.56;;;1.10;100.00
19777;BME280;10047;42.490;26.012;2023-01-29T05:11:25;100772.66;;;1.50;100.00
19777;BME280;10047;42.490;26.012;2023-01-29T05:13:50;100760.78;;;1.43;100.00
19777;BME280;10047;42.490;26.012;2023-01-29T05:16:22;100774.03;;;1.38;100.00
19777;BME280;10047;42.490;26.012;2023-01-29T05:18:49;100775.53;;;1.31;100.00
19777;BME280;10047;42.490;26.012;2023-01-29T05:21:15;100708.13;;;1.02;100.00
19777;BME280;10047;42.490;26.012;2023-01-29T05:23:41;100784.41;;;1.54;100.00
19777;BME280;10047;42.490;26.012;2023-01-29T05:26:18;100780.22;;;1.53;100.00
19777;BME280;10047;42.490;26.012;2023-01-29T05:29:03;100702.03;;;0.89;100.00
19777;BME280;10047;42.490;26.012;2023-01-29T05:31:29;100792.31;;;1.34;100.00
19777;BME280;10047;42.490;26.012;2023-01-29T05:33:54;100711.81;;;0.80;100.00
19777;BME280;10047;42.490;26.012;2023-01-29T05:36:20;100787.78;;;1.19;100.00
19777;BME280;10047;42.490;26.012;2023-01-29T05:38:45;100700.91;;;0.76;100.00
19777;BME280;10047;42.490;26.012;2023-01-29T05:41:10;100752.59;;;1.13;100.00
19777;BME280;10047;42.490;26.012;2023-01-29T05:43:36;100802.06;;;1.23;100.00
19777;BME280;10047;42.490;26.012;2023-01-29T05:46:01;100721.78;;;0.78;100.00
19777;BME280;10047;42.490;26.012;2023-01-29T05:48:27;100749.00;;;1.01;100.00
19777;BME280;10047;42.490;26.012;2023-01-29T05:50:53;100799.63;;;1.25;100.00
19777;BME280;10047;42.490;26.012;2023-01-29T05:53:19;100755.56;;;0.97;100.00
19777;BME280;10047;42.490;26.012;2023-01-29T05:55:45;100755.66;;;1.00;100.00
19777;BME280;10047;42.490;26.012;2023-01-29T05:58:11;100796.91;;;1.16;100.00
19777;BME280;10047;42.490;26.012;2023-01-29T06:00:37;100830.56;;;1.28;100.00
19777;BME280;10047;42.490;26.012;2023-01-29T06:03:03;100746.94;;;0.84;100.00
19777;BME280;10047;42.490;26.012;2023-01-29T06:05:28;100828.34;;;1.40;100.00
19777;BME280;10047;42.490;26.012;2023-01-29T06:07:53;100823.81;;;1.24;100.00
19777;BME280;10047;42.490;26.012;2023-01-29T06:10:19;100757.00;;;0.87;100.00
19777;BME280;10047;42.490;26.012;2023-01-29T06:12:44;100777.50;;;1.07;100.00
19777;BME280;10047;42.490;26.012;2023-01-29T06:15:11;100768.03;;;0.94;100.00
19777;BME280;10047;42.490;26.012;2023-01-29T06:17:37;100811.81;;;1.11;100.00
19777;BME280;10047;42.490;26.012;2023-01-29T06:20:03;100763.03;;;0.96;100.00
19777;BME280;10047;42.490;26.012;2023-01-29T06:22:29;100862.00;;;1.51;100.00
19777;BME280;10047;42.490;26.012;2023-01-29T06:24:54;100811.13;;;1.54;100.00
19777;BME280;10047;42.490;26.012;2023-01-29T06:27:20;100876.06;;;1.84;100.00
19777;BME280;10047;42.490;26.012;2023-01-29T06:29:45;100720.75;;;0.70;100.00
19777;BME280;10047;42.490;26.012;2023-01-29T06:32:11;100862.25;;;1.63;100.00
19777;BME280;10047;42.490;26.012;2023-01-29T06:34:36;100876.19;;;1.88;100.00
19777;BME280;10047;42.490;26.012;2023-01-29T06:37:02;100801.25;;;1.23;100.00
19777;BME280;10047;42.490;26.012;2023-01-29T06:39:27;100790.25;;;1.18;100.00
19777;BME280;10047;42.490;26.012;2023-01-29T06:41:52;100797.34;;;1.35;100.00
19777;BME280;10047;42.490;26.012;2023-01-29T06:44:18;100879.84;;;1.66;100.00
19777;BME280;10047;42.490;26.012;2023-01-29T06:46:43;100892.53;;;1.72;100.00
19777;BME280;10047;42.490;26.012;2023-01-29T06:49:09;100827.91;;;1.58;100.00
19777;BME280;10047;42.490;26.012;2023-01-29T06:51:34;100874.50;;;1.50;100.00
19777;BME280;10047;42.490;26.012;2023-01-29T06:54:00;100879.94;;;1.69;100.00
19777;BME280;10047;42.490;26.012;2023-01-29T06:56:25;100818.06;;;1.28;100.00
19777;BME280;10047;42.490;26.012;2023-01-29T06:58:51;100818.81;;;1.26;100.00
19777;BME280;10047;42.490;26.012;2023-01-29T07:01:16;100829.56;;;1.57;100.00
19777;BME280;10047;42.490;26.012;2023-01-29T07:03:42;100756.94;;;1.19;100.00
19777;BME280;10047;42.490;26.012;2023-01-29T07:06:07;100889.19;;;1.72;100.00
19777;BME280;10047;42.490;26.012;2023-01-29T07:08:37;100897.63;;;1.75;100.00
19777;BME280;10047;42.490;26.012;2023-01-29T07:11:03;100904.97;;;2.07;100.00
19777;BME280;10047;42.490;26.012;2023-01-29T07:13:29;100827.72;;;1.89;100.00
19777;BME280;10047;42.490;26.012;2023-01-29T07:16:02;100818.50;;;1.48;100.00
19777;BME280;10047;42.490;26.012;2023-01-29T07:18:28;100833.06;;;1.64;100.00
19777;BME280;10047;42.490;26.012;2023-01-29T07:20:54;100914.22;;;2.08;100.00
19777;BME280;10047;42.490;26.012;2023-01-29T07:23:19;100895.50;;;1.94;100.00
19777;BME280;10047;42.490;26.012;2023-01-29T07:25:45;100898.50;;;1.77;100.00
19777;BME280;10047;42.490;26.012;2023-01-29T07:28:11;100916.22;;;1.87;100.00
19777;BME280;10047;42.490;26.012;2023-01-29T07:30:36;100905.44;;;1.89;100.00
19777;BME280;10047;42.490;26.012;2023-01-29T07:33:03;100933.25;;;2.00;100.00
19777;BME280;10047;42.490;26.012;2023-01-29T07:35:29;100925.03;;;1.69;100.00
19777;BME280;10047;42.490;26.012;2023-01-29T07:37:55;100902.91;;;1.88;100.00
19777;BME280;10047;42.490;26.012;2023-01-29T07:40:20;100770.69;;;1.02;100.00
19777;BME280;10047;42.490;26.012;2023-01-29T07:42:46;100873.28;;;1.70;100.00
19777;BME280;10047;42.490;26.012;2023-01-29T07:45:11;100778.84;;;1.29;100.00
19777;BME280;10047;42.490;26.012;2023-01-29T07:47:37;100922.06;;;1.86;100.00
19777;BME280;10047;42.490;26.012;2023-01-29T07:50:03;100841.16;;;1.93;100.00
19777;BME280;10047;42.490;26.012;2023-01-29T07:52:30;100904.88;;;2.02;100.00
19777;BME280;10047;42.490;26.012;2023-01-29T07:54:56;100913.28;;;2.04;100.00
19777;BME280;10047;42.490;26.012;2023-01-29T07:57:21;100930.94;;;1.71;100.00
19777;BME280;10047;42.490;26.012;2023-01-29T07:59:47;100914.34;;;1.76;100.00
19777;BME280;10047;42.490;26.012;2023-01-29T08:02:12;100852.09;;;1.56;100.00
19777;BME280;10047;42.490;26.012;2023-01-29T08:04:38;100923.72;;;1.85;100.00
19777;BME280;10047;42.490;26.012;2023-01-29T08:07:03;100848.72;;;1.55;100.00
19777;BME280;10047;42.490;26.012;2023-01-29T08:09:29;100930.44;;;2.25;100.00
19777;BME280;10047;42.490;26.012;2023-01-29T08:11:55;100867.09;;;1.56;100.00
19777;BME280;10047;42.490;26.012;2023-01-29T08:14:21;100888.53;;;1.81;100.00
19777;BME280;10047;42.490;26.012;2023-01-29T08:16:47;100930.13;;;2.10;100.00
19777;BME280;10047;42.490;26.012;2023-01-29T08:19:12;100948.72;;;2.19;100.00
19777;BME280;10047;42.490;26.012;2023-01-29T08:21:38;100931.31;;;1.88;100.00
19777;BME280;10047;42.490;26.012;2023-01-29T08:24:03;100950.00;;;2.02;100.00
19777;BME280;10047;42.490;26.012;2023-01-29T08:26:29;100943.34;;;2.03;100.00
19777;BME280;10047;42.490;26.012;2023-01-29T08:28:54;100851.97;;;1.51;100.00
19777;BME280;10047;42.490;26.012;2023-01-29T08:31:20;100842.16;;;1.60;100.00
19777;BME280;10047;42.490;26.012;2023-01-29T08:33:45;100923.66;;;2.19;100.00
19777;BME280;10047;42.490;26.012;2023-01-29T08:36:11;100962.22;;;2.26;100.00
19777;BME280;10047;42.490;26.012;2023-01-29T08:38:36;100892.63;;;1.77;100.00
19777;BME280;10047;42.490;26.012;2023-01-29T08:41:02;100954.78;;;2.29;100.00
19777;BME280;10047;42.490;26.012;2023-01-29T08:43:28;100809.00;;;1.72;100.00
19777;BME280;10047;42.490;26.012;2023-01-29T08:45:53;100935.66;;;1.97;100.00
19777;BME280;10047;42.490;26.012;2023-01-29T08:48:19;100826.88;;;1.48;100.00
19777;BME280;10047;42.490;26.012;2023-01-29T08:50:44;100882.91;;;1.53;100.00
19777;BME280;10047;42.490;26.012;2023-01-29T08:53:10;100867.22;;;1.60;100.00
19777;BME280;10047;42.490;26.012;2023-01-29T08:55:36;100937.47;;;2.02;100.00
19777;BME280;10047;42.490;26.012;2023-01-29T08:58:07;100876.38;;;1.99;100.00
19777;BME280;10047;42.490;26.012;2023-01-29T09:00:33;100891.69;;;2.11;100.00
19777;BME280;10047;42.490;26.012;2023-01-29T09:02:59;100931.13;;;2.18;100.00
19777;BME280;10047;42.490;26.012;2023-01-29T09:05:28;100954.78;;;1.90;100.00
19777;BME280;10047;42.490;26.012;2023-01-29T09:07:57;100871.25;;;1.93;100.00
19777;BME280;10047;42.490;26.012;2023-01-29T09:10:22;100934.00;;;2.36;100.00
19777;BME280;10047;42.490;26.012;2023-01-29T09:12:47;100961.69;;;2.40;100.00
19777;BME280;10047;42.490;26.012;2023-01-29T09:15:13;100978.63;;;2.50;100.00
19777;BME280;10047;42.490;26.012;2023-01-29T09:17:38;100965.91;;;2.41;100.00
19777;BME280;10047;42.490;26.012;2023-01-29T09:20:06;100943.38;;;2.43;100.00
19777;BME280;10047;42.490;26.012;2023-01-29T09:22:31;100926.81;;;2.51;100.00
19777;BME280;10047;42.490;26.012;2023-01-29T09:24:57;100967.31;;;2.29;100.00
19777;BME280;10047;42.490;26.012;2023-01-29T09:27:23;100949.66;;;2.24;100.00
19777;BME280;10047;42.490;26.012;2023-01-29T09:29:49;100927.81;;;2.19;100.00
19777;BME280;10047;42.490;26.012;2023-01-29T09:32:14;100942.75;;;2.14;100.00
19777;BME280;10047;42.490;26.012;2023-01-29T09:34:39;100864.28;;;1.80;100.00
19777;BME280;10047;42.490;26.012;2023-01-29T09:37:05;100933.63;;;2.59;100.00
19777;BME280;10047;42.490;26.012;2023-01-29T09:39:30;100925.00;;;2.05;100.00
19777;BME280;10047;42.490;26.012;2023-01-29T09:42:20;100942.38;;;2.36;100.00
19777;BME280;10047;42.490;26.012;2023-01-29T09:47:24;100851.97;;;2.30;100.00
19777;BME280;10047;42.490;26.012;2023-01-29T09:50:00;100928.97;;;2.78;100.00
19777;BME280;10047;42.490;26.012;2023-01-29T09:52:34;100880.31;;;2.28;100.00
19777;BME280;10047;42.490;26.012;2023-01-29T09:55:08;100914.91;;;2.86;100.00
19777;BME280;10047;42.490;26.012;2023-01-29T09:58:06;100923.94;;;2.78;100.00
19777;BME280;10047;42.490;26.012;2023-01-29T10:03:23;100921.50;;;2.81;100.00
19777;BME280;10047;42.490;26.012;2023-01-29T10:08:36;100917.41;;;2.41;100.00
19777;BME280;10047;42.490;26.012;2023-01-29T10:11:36;100848.53;;;2.72;100.00
19777;BME280;10047;42.490;26.012;2023-01-29T10:14:33;100909.94;;;2.87;100.00
19777;BME280;10047;42.490;26.012;2023-01-29T10:17:20;100912.69;;;3.01;100.00
19777;BME280;10047;42.490;26.012;2023-01-29T10:20:09;100908.19;;;2.83;100.00
19777;BME280;10047;42.490;26.012;2023-01-29T10:25:32;100742.00;;;2.07;100.00
19777;BME280;10047;42.490;26.012;2023-01-29T10:28:01;100812.19;;;2.50;100.00
19777;BME280;10047;42.490;26.012;2023-01-29T10:30:32;100899.44;;;2.63;100.00
19777;BME280;10047;42.490;26.012;2023-01-29T10:33:04;100812.59;;;2.28;100.00
19777;BME280;10047;42.490;26.012;2023-01-29T10:35:33;100818.47;;;2.28;100.00
19777;BME280;10047;42.490;26.012;2023-01-29T10:38:14;100804.31;;;2.30;100.00
19777;BME280;10047;42.490;26.012;2023-01-29T10:40:55;100813.16;;;2.56;100.00
19777;BME280;10047;42.490;26.012;2023-01-29T10:49:13;100872.31;;;2.92;100.00
19777;BME280;10047;42.490;26.012;2023-01-29T11:00:23;100768.94;;;2.63;100.00
19777;BME280;10047;42.490;26.012;2023-01-29T11:02:50;100842.41;;;3.04;100.00
19777;BME280;10047;42.490;26.012;2023-01-29T11:05:33;100845.47;;;2.88;100.00
19777;BME280;10047;42.490;26.012;2023-01-29T11:08:06;100850.59;;;2.94;100.00
19777;BME280;10047;42.490;26.012;2023-01-29T11:10:51;100821.13;;;2.84;100.00
19777;BME280;10047;42.490;26.012;2023-01-29T11:13:18;100761.25;;;3.05;100.00
19777;BME280;10047;42.490;26.012;2023-01-29T11:15:43;100823.56;;;3.31;100.00
19777;BME280;10047;42.490;26.012;2023-01-29T11:18:11;100785.50;;;3.06;100.00
19777;BME280;10047;42.490;26.012;2023-01-29T11:20:41;100773.94;;;3.15;100.00
19777;BME280;10047;42.490;26.012;2023-01-29T11:23:24;100805.47;;;2.97;100.00
19777;BME280;10047;42.490;26.012;2023-01-29T11:25:52;100755.31;;;3.01;100.00
19777;BME280;10047;42.490;26.012;2023-01-29T11:28:38;100804.50;;;2.87;100.00
19777;BME280;10047;42.490;26.012;2023-01-29T11:31:15;100753.66;;;3.02;100.00
19777;BME280;10047;42.490;26.012;2023-01-29T11:33:41;100667.88;;;2.21;100.00
19777;BME280;10047;42.490;26.012;2023-01-29T11:36:28;100807.91;;;3.47;100.00
19777;BME280;10047;42.490;26.012;2023-01-29T11:39:19;100797.25;;;3.67;100.00
19777;BME280;10047;42.490;26.012;2023-01-29T11:42:01;100795.94;;;3.30;100.00
19777;BME280;10047;42.490;26.012;2023-01-29T11:49:43;100787.53;;;3.29;100.00
19777;BME280;10047;42.490;26.012;2023-01-29T11:52:10;100787.88;;;3.52;100.00
19777;BME280;10047;42.490;26.012;2023-01-29T11:54:48;100709.22;;;2.99;100.00
19777;BME280;10047;42.490;26.012;2023-01-29T11:59:50;100785.69;;;3.79;100.00
19777;BME280;10047;42.490;26.012;2023-01-29T12:05:15;100700.78;;;3.54;100.00
19777;BME280;10047;42.490;26.012;2023-01-29T12:07:43;100784.75;;;3.70;100.00
19777;BME280;10047;42.490;26.012;2023-01-29T12:13:26;100783.53;;;4.09;100.00
19777;BME280;10047;42.490;26.012;2023-01-29T12:21:02;100754.50;;;3.64;100.00
19777;BME280;10047;42.490;26.012;2023-01-29T12:26:14;100766.06;;;3.51;100.00
19777;BME280;10047;42.490;26.012;2023-01-29T12:28:49;100761.91;;;3.53;100.00
19777;BME280;10047;42.490;26.012;2023-01-29T12:33:56;100671.00;;;3.18;100.00
19777;BME280;10047;42.490;26.012;2023-01-29T12:36:32;100707.91;;;3.22;100.00
19777;BME280;10047;42.490;26.012;2023-01-29T12:39:00;100632.94;;;2.90;100.00
19777;BME280;10047;42.490;26.012;2023-01-29T12:42:02;100759.13;;;3.33;100.00
19777;BME280;10047;42.490;26.012;2023-01-29T12:44:35;100752.50;;;3.38;100.00
19777;BME280;10047;42.490;26.012;2023-01-29T12:47:09;100679.09;;;2.99;100.00
19777;BME280;10047;42.490;26.012;2023-01-29T12:49:38;100766.50;;;3.84;100.00
19777;BME280;10047;42.490;26.012;2023-01-29T12:57:25;100734.50;;;3.08;100.00
19777;BME280;10047;42.490;26.012;2023-01-29T13:00:10;100751.66;;;3.38;100.00
19777;BME280;10047;42.490;26.012;2023-01-29T13:02:52;100679.00;;;2.93;100.00
19777;BME280;10047;42.490;26.012;2023-01-29T13:07:49;100692.69;;;3.13;100.00
19777;BME280;10047;42.490;26.012;2023-01-29T13:10:19;100696.06;;;3.14;100.00
19777;BME280;10047;42.490;26.012;2023-01-29T13:12:55;100732.94;;;3.16;100.00
19777;BME280;10047;42.490;26.012;2023-01-29T13:15:41;100762.34;;;3.88;100.00
19777;BME280;10047;42.490;26.012;2023-01-29T13:18:29;100691.03;;;3.12;100.00
19777;BME280;10047;42.490;26.012;2023-01-29T13:20:57;100757.91;;;3.69;100.00
19777;BME280;10047;42.490;26.012;2023-01-29T13:23:44;100694.81;;;3.46;100.00
19777;BME280;10047;42.490;26.012;2023-01-29T13:26:11;100737.50;;;3.44;100.00
19777;BME280;10047;42.490;26.012;2023-01-29T13:28:38;100759.84;;;3.91;100.00
19777;BME280;10047;42.490;26.012;2023-01-29T13:33:35;100686.03;;;3.15;100.00
19777;BME280;10047;42.490;26.012;2023-01-29T13:36:01;100776.47;;;3.78;100.00
19777;BME280;10047;42.490;26.012;2023-01-29T13:38:29;100674.16;;;3.05;100.00
19777;BME280;10047;42.490;26.012;2023-01-29T13:41:02;100756.38;;;3.80;100.00
19777;BME280;10047;42.490;26.012;2023-01-29T13:43:39;100708.00;;;3.31;100.00
19777;BME280;10047;42.490;26.012;2023-01-29T13:46:12;100762.38;;;3.91;100.00
19777;BME280;10047;42.490;26.012;2023-01-29T13:48:43;100759.69;;;3.76;100.00
19777;BME280;10047;42.490;26.012;2023-01-29T13:51:13;100703.16;;;3.45;100.00
19777;BME280;10047;42.490;26.012;2023-01-29T13:53:42;100682.66;;;3.13;100.00
19777;BME280;10047;42.490;26.012;2023-01-29T14:04:30;100754.34;;;3.50;100.00
19777;BME280;10047;42.490;26.012;2023-01-29T14:06:57;100676.72;;;3.07;100.00
19777;BME280;10047;42.490;26.012;2023-01-29T14:12:01;100768.00;;;3.72;100.00
19777;BME280;10047;42.490;26.012;2023-01-29T14:14:50;100767.00;;;3.61;100.00
19777;BME280;10047;42.490;26.012;2023-01-29T14:17:18;100679.16;;;3.01;100.00
19777;BME280;10047;42.490;26.012;2023-01-29T14:19:52;100739.25;;;3.50;100.00
19777;BME280;10047;42.490;26.012;2023-01-29T14:22:23;100609.22;;;2.67;100.00
19777;BME280;10047;42.490;26.012;2023-01-29T14:25:15;100763.91;;;3.80;100.00
19777;BME280;10047;42.490;26.012;2023-01-29T14:27:46;100679.41;;;3.19;100.00
19777;BME280;10047;42.490;26.012;2023-01-29T14:30:16;100767.69;;;3.49;100.00
19777;BME280;10047;42.490;26.012;2023-01-29T14:32:45;100616.75;;;2.68;100.00
19777;BME280;10047;42.490;26.012;2023-01-29T14:35:18;100771.09;;;3.51;100.00
19777;BME280;10047;42.490;26.012;2023-01-29T14:37:48;100770.34;;;3.58;100.00
19777;BME280;10047;42.490;26.012;2023-01-29T14:43:02;100774.38;;;3.47;100.00
19777;BME280;10047;42.490;26.012;2023-01-29T14:45:37;100776.00;;;3.43;100.00
19777;BME280;10047;42.490;26.012;2023-01-29T14:50:39;100779.63;;;3.62;100.00
19777;BME280;10047;42.490;26.012;2023-01-29T14:56:00;100776.63;;;3.29;100.00
19777;BME280;10047;42.490;26.012;2023-01-29T15:01:21;100703.81;;;2.72;100.00